Terminal Aerodrome Forecast
Issued by NWS

Home | Current Version | Previous Version | Graphics & Text | Print | Product List | Glossary On
Versions: 1 2 3 4 5 6 7 8 9 10 11 12 13 14 15 16 17 18 19 20 21
000
FTUS43 KICT 302000 AAB
TAFSLN
TAF AMD
KSLN 302048Z 3021/0118 17011KT P6SM VCSH BKN070
     FM302300 17012KT P6SM VCTS BKN060CB
     FM011000 17009KT P6SM VCSH BKN060
     FM011500 18011KT P6SM SCT060=

USA.gov is the U.S. government's official web portal to all federal, state and local government web resources and services.